Terminal Aerodrome Forecast
Issued by NWS Atlanta, GA

Home | Current Version | Previous Version | Text Only | Print | Product List | Glossary On
Versions: 1 2 3 4 5 6 7 8 9 10 11 12 13 14
696
FTUS42 KFFC 092338
TAFCSG
TAF
KCSG 092338Z 1000/1024 30010KT P6SM VCSH SCT050
      TEMPO 1000/1004 BKN050
     FM101500 30012G22KT P6SM SKC=

USA.gov is the U.S. government's official web portal to all federal, state and local government web resources and services.